createdAt,value
2022-11-04T00:00:26.917Z,76.38
2022-11-04T00:01:25.789Z,76.38
2022-11-04T00:02:24.075Z,73.48
2022-11-04T00:03:25.067Z,63.00
2022-11-04T00:04:24.426Z,69.77
2022-11-04T00:05:24.577Z,70.58
2022-11-04T00:06:24.697Z,61.23
2022-11-04T00:07:24.824Z,60.59
2022-11-04T00:08:24.962Z,59.14
2022-11-04T00:09:26.067Z,80.24
2022-11-04T00:10:25.315Z,64.13
2022-11-04T00:11:25.435Z,60.42
2022-11-04T00:12:25.575Z,73.48
2022-11-04T00:13:26.575Z,81.86
2022-11-04T00:14:25.913Z,74.93
2022-11-04T00:15:26.051Z,77.18
2022-11-04T00:16:26.180Z,56.88
2022-11-04T00:17:26.330Z,58.97
2022-11-04T00:18:26.578Z,57.52
2022-11-04T00:19:26.741Z,54.79
2022-11-04T00:20:26.877Z,74.28
2022-11-04T00:21:27.022Z,58.49
2022-11-04T00:22:27.165Z,73.64
2022-11-04T00:23:27.327Z,76.86
2022-11-04T00:24:27.467Z,65.42
2022-11-04T00:25:27.669Z,67.03
2022-11-04T00:26:27.844Z,82.98
2022-11-04T00:27:28.095Z,69.13
2022-11-04T00:28:28.288Z,68.64
2022-11-04T00:29:28.393Z,63.00
2022-11-04T00:30:28.543Z,59.30
2022-11-04T00:31:28.681Z,58.17
2022-11-04T00:32:29.572Z,56.56
2022-11-04T00:33:28.980Z,76.54
2022-11-04T00:34:29.109Z,55.91
2022-11-04T00:35:29.268Z,75.57
2022-11-04T00:36:29.393Z,54.95
2022-11-04T00:37:30.074Z,54.30
2022-11-04T00:38:29.698Z,61.55
2022-11-04T00:39:29.878Z,63.00
2022-11-04T00:40:30.017Z,53.98
2022-11-04T00:41:31.078Z,56.24
2022-11-04T00:42:30.330Z,58.97
2022-11-04T00:43:30.457Z,64.94
2022-11-04T00:44:30.632Z,58.81
2022-11-04T00:45:30.779Z,76.05
2022-11-04T00:46:30.931Z,76.54
2022-11-04T00:47:31.583Z,63.81
2022-11-04T00:48:31.230Z,59.62
2022-11-04T00:49:31.417Z,55.43
2022-11-04T00:50:31.560Z,56.88
2022-11-04T00:51:31.706Z,59.46
2022-11-04T00:52:32.094Z,52.85
2022-11-04T00:53:32.577Z,55.91
2022-11-04T00:54:32.108Z,59.62
2022-11-04T00:55:33.082Z,67.35
2022-11-04T00:56:32.457Z,76.22
2022-11-04T00:57:32.614Z,67.84
2022-11-04T00:58:32.845Z,57.52
2022-11-04T00:59:33.092Z,63.16
2022-11-04T01:00:34.085Z,61.87
2022-11-04T01:01:34.329Z,62.04
2022-11-04T01:02:34.244Z,59.62
2022-11-04T01:03:34.588Z,59.78
2022-11-04T01:04:33.962Z,61.23
2022-11-04T01:05:35.090Z,59.14
2022-11-04T01:06:34.361Z,58.65
2022-11-04T01:07:37.318Z,79.12
2022-11-04T01:08:35.715Z,58.01
2022-11-04T01:09:35.097Z,63.65
2022-11-04T01:10:35.131Z,65.26
2022-11-04T01:11:35.265Z,72.67
2022-11-04T01:12:36.082Z,61.71
2022-11-04T01:13:36.082Z,56.56
2022-11-04T01:14:35.713Z,56.72
2022-11-04T01:15:35.860Z,59.94
2022-11-04T01:16:36.024Z,66.06
2022-11-04T01:17:36.169Z,70.25
2022-11-04T01:18:36.423Z,62.20
2022-11-04T01:19:37.087Z,61.55
2022-11-04T01:20:36.713Z,64.29
2022-11-04T01:21:36.865Z,62.84
2022-11-04T01:22:36.988Z,72.83
2022-11-04T01:23:37.117Z,61.87
2022-11-04T01:24:38.089Z,61.55
2022-11-04T01:25:37.467Z,58.49
2022-11-04T01:26:37.677Z,55.11
2022-11-04T01:27:37.827Z,64.45
2022-11-04T01:28:38.591Z,58.01
2022-11-04T01:29:38.190Z,75.57
2022-11-04T01:30:38.314Z,73.96
2022-11-04T01:31:38.471Z,60.10
2022-11-04T01:32:39.099Z,61.87
2022-11-04T01:33:39.589Z,57.04
2022-11-04T01:34:42.463Z,54.30
2022-11-04T01:35:41.087Z,60.59
2022-11-04T01:36:39.318Z,60.26
2022-11-04T01:37:39.467Z,56.24
2022-11-04T01:38:40.595Z,56.72
2022-11-04T01:39:39.825Z,73.15
2022-11-04T01:40:39.960Z,67.03
2022-11-04T01:41:40.229Z,74.93
2022-11-04T01:42:40.347Z,58.49
2022-11-04T01:43:40.487Z,68.48
2022-11-04T01:44:40.623Z,62.04
2022-11-04T01:45:40.780Z,61.71
2022-11-04T01:46:40.992Z,62.36
2022-11-04T01:47:41.170Z,74.12
2022-11-04T01:48:41.341Z,64.61
2022-11-04T01:49:43.500Z,63.33
2022-11-04T01:50:41.655Z,62.36
2022-11-04T01:51:41.787Z,61.71
2022-11-04T01:52:41.946Z,57.85
2022-11-04T01:53:42.592Z,65.10
2022-11-04T01:54:42.256Z,65.90
2022-11-04T01:55:42.413Z,54.14
2022-11-04T01:56:42.614Z,55.75
2022-11-04T01:57:43.104Z,57.04
2022-11-04T01:58:42.905Z,56.40
2022-11-04T01:59:43.042Z,55.27
2022-11-04T02:00:43.173Z,58.65
2022-11-04T02:01:43.395Z,58.81
2022-11-04T02:02:43.508Z,55.91
2022-11-04T02:03:43.608Z,57.36
2022-11-04T02:04:44.768Z,60.75
2022-11-04T02:05:43.911Z,60.26
2022-11-04T02:06:44.599Z,58.65
2022-11-04T02:07:44.611Z,82.34
2022-11-04T02:08:45.098Z,79.12
2022-11-04T02:09:45.103Z,75.41
2022-11-04T02:10:44.665Z,74.28
2022-11-04T02:11:45.600Z,54.79
2022-11-04T02:12:44.986Z,60.26
2022-11-04T02:13:45.195Z,65.26
2022-11-04T02:14:45.613Z,54.95
2022-11-04T02:15:45.530Z,56.72
2022-11-04T02:16:45.710Z,63.81
2022-11-04T02:17:45.879Z,59.14
2022-11-04T02:18:46.054Z,66.55
2022-11-04T02:19:46.268Z,63.65
2022-11-04T02:20:46.461Z,62.20
2022-11-04T02:21:47.599Z,69.13
2022-11-04T02:22:46.853Z,55.91
2022-11-04T02:23:47.606Z,59.78
2022-11-04T02:24:47.268Z,54.79
2022-11-04T02:25:47.435Z,61.87
2022-11-04T02:26:47.607Z,74.77
2022-11-04T02:27:47.808Z,60.59
2022-11-04T02:28:47.958Z,55.91
2022-11-04T02:29:48.133Z,54.14
2022-11-04T02:30:49.105Z,61.07
2022-11-04T02:31:48.526Z,53.33
2022-11-04T02:32:48.689Z,56.72
2022-11-04T02:33:48.863Z,80.57
2022-11-04T02:34:49.032Z,80.73
2022-11-04T02:35:49.215Z,53.17
2022-11-04T02:36:49.403Z,53.98
2022-11-04T02:37:50.129Z,75.73
2022-11-04T02:38:49.835Z,74.77
2022-11-04T02:39:50.026Z,55.27
2022-11-04T02:40:51.119Z,58.65
2022-11-04T02:41:50.391Z,58.97
2022-11-04T02:42:50.588Z,59.30
2022-11-04T02:43:51.121Z,75.41
2022-11-04T02:44:51.605Z,60.26
2022-11-04T02:45:51.141Z,60.59
2022-11-04T02:46:51.356Z,79.76
2022-11-04T02:47:51.435Z,55.11
2022-11-04T02:48:51.641Z,60.10
2022-11-04T02:49:51.824Z,57.04
2022-11-04T02:50:51.953Z,58.97
2022-11-04T02:51:52.620Z,75.57
2022-11-04T02:52:53.110Z,76.05
2022-11-04T02:53:52.487Z,55.59
2022-11-04T02:54:52.652Z,73.96
2022-11-04T02:55:52.794Z,78.31
2022-11-04T02:56:53.609Z,77.18
2022-11-04T02:57:53.116Z,56.40
2022-11-04T02:58:53.250Z,55.27
2022-11-04T02:59:53.627Z,55.91
2022-11-04T03:00:53.580Z,57.20
2022-11-04T03:01:54.692Z,56.88
2022-11-04T03:02:53.899Z,58.65
2022-11-04T03:03:54.610Z,73.48
2022-11-04T03:04:54.251Z,62.20
2022-11-04T03:05:54.381Z,63.81
2022-11-04T03:06:54.512Z,72.51
2022-11-04T03:07:54.632Z,74.44
2022-11-04T03:08:54.764Z,58.49
2022-11-04T03:09:54.921Z,78.96
2022-11-04T03:10:55.613Z,75.41
2022-11-04T03:11:55.218Z,62.04
2022-11-04T03:12:55.359Z,75.89
2022-11-04T03:13:55.511Z,68.48
2022-11-04T03:14:55.678Z,54.62
2022-11-04T03:15:55.833Z,71.06
2022-11-04T03:16:55.984Z,78.47
2022-11-04T03:17:57.123Z,76.54
2022-11-04T03:18:57.113Z,74.28
2022-11-04T03:19:56.499Z,77.34
2022-11-04T03:20:56.633Z,58.01
2022-11-04T03:21:56.765Z,76.70
2022-11-04T03:22:56.907Z,79.28
2022-11-04T03:23:57.056Z,59.14
2022-11-04T03:24:57.628Z,78.96
2022-11-04T03:25:58.128Z,75.09
2022-11-04T03:26:57.629Z,61.55
2022-11-04T03:27:57.655Z,71.70
2022-11-04T03:28:58.618Z,74.44
2022-11-04T03:29:57.983Z,58.17
2022-11-04T03:30:58.136Z,74.60
2022-11-04T03:31:58.633Z,76.70
2022-11-04T03:32:58.509Z,74.44
2022-11-04T03:33:59.614Z,82.50
2022-11-04T03:34:58.842Z,78.15
2022-11-04T03:35:59.029Z,77.50
2022-11-04T03:36:59.195Z,68.00
2022-11-04T03:37:59.384Z,75.25
2022-11-04T03:39:00.116Z,71.70
2022-11-04T03:40:00.624Z,76.38
2022-11-04T03:41:00.026Z,73.64
2022-11-04T03:42:00.163Z,73.96
2022-11-04T03:43:01.127Z,76.22
2022-11-04T03:44:00.498Z,77.02
2022-11-04T03:45:00.657Z,77.99
2022-11-04T03:46:00.817Z,77.18
2022-11-04T03:47:00.987Z,78.63
2022-11-04T03:48:01.152Z,81.05
2022-11-04T03:49:01.323Z,77.50
2022-11-04T03:50:02.131Z,80.41
2022-11-04T03:51:01.651Z,78.96
2022-11-04T03:52:01.852Z,77.18
2022-11-04T03:53:02.028Z,82.02
2022-11-04T03:54:02.647Z,77.18
2022-11-04T03:55:02.395Z,76.22
2022-11-04T03:56:03.121Z,79.28
2022-11-04T03:57:02.745Z,74.28
2022-11-04T03:58:02.903Z,80.73
2022-11-04T03:59:03.066Z,72.03
2022-11-04T04:00:04.128Z,78.79
2022-11-04T04:01:04.167Z,75.41
2022-11-04T04:02:03.624Z,77.83
2022-11-04T04:03:03.684Z,83.31
2022-11-04T04:04:04.627Z,76.70
2022-11-04T04:05:03.984Z,77.99
2022-11-04T04:06:04.120Z,80.08
2022-11-04T04:07:04.643Z,78.96
2022-11-04T04:08:05.224Z,73.48
2022-11-04T04:09:04.668Z,83.31
2022-11-04T04:10:04.787Z,79.28
2022-11-04T04:11:05.623Z,78.47
2022-11-04T04:12:05.134Z,75.41
2022-11-04T04:13:06.127Z,79.44
2022-11-04T04:14:05.492Z,80.08
2022-11-04T04:15:05.621Z,75.57
2022-11-04T04:16:06.772Z,80.08
2022-11-04T04:17:05.935Z,78.47
2022-11-04T04:18:06.378Z,78.31
2022-11-04T04:19:06.265Z,82.02
2022-11-04T04:20:06.438Z,78.96
2022-11-04T04:21:06.579Z,78.31
2022-11-04T04:22:06.716Z,81.05
2022-11-04T04:23:07.629Z,78.96
2022-11-04T04:24:07.655Z,78.96
2022-11-04T04:25:07.196Z,82.02
2022-11-04T04:26:07.377Z,79.92
2022-11-04T04:27:07.567Z,79.76
2022-11-04T04:28:08.879Z,78.79
2022-11-04T04:29:07.930Z,77.50
2022-11-04T04:30:08.149Z,82.82
2022-11-04T04:31:08.300Z,79.60
2022-11-04T04:32:08.545Z,79.60
2022-11-04T04:33:08.682Z,79.92
2022-11-04T04:34:08.840Z,82.66
2022-11-04T04:35:09.011Z,80.08
2022-11-04T04:36:09.186Z,81.05
2022-11-04T04:37:09.341Z,78.31
2022-11-04T04:38:09.852Z,82.50
2022-11-04T04:39:09.708Z,84.11
2022-11-04T04:40:10.637Z,78.96
2022-11-04T04:41:10.037Z,82.34
2022-11-04T04:42:10.176Z,81.69
2022-11-04T04:43:10.711Z,80.24
2022-11-04T04:44:10.585Z,81.21
2022-11-04T04:45:10.733Z,82.02
2022-11-04T04:46:10.905Z,79.12
2022-11-04T04:47:11.046Z,80.08
2022-11-04T04:48:11.230Z,81.05
2022-11-04T04:49:11.371Z,79.60
2022-11-04T04:50:11.513Z,81.69
2022-11-04T04:51:11.636Z,80.41
2022-11-04T04:52:11.784Z,79.92
2022-11-04T04:53:12.146Z,79.28
2022-11-04T04:54:12.705Z,80.89
2022-11-04T04:55:12.191Z,79.28
2022-11-04T04:56:13.142Z,82.50
2022-11-04T04:57:12.522Z,79.12
2022-11-04T04:58:12.677Z,81.53
2022-11-04T04:59:13.648Z,82.02
2022-11-04T05:00:13.006Z,79.44
2022-11-04T05:01:14.308Z,79.60
2022-11-04T05:02:13.575Z,81.86
2022-11-04T05:03:13.624Z,78.47
2022-11-04T05:04:13.763Z,77.99
2022-11-04T05:06:14.183Z,82.02
2022-11-04T05:07:14.651Z,80.24
2022-11-04T05:08:14.514Z,79.28
2022-11-04T05:09:14.655Z,81.37
2022-11-04T05:10:15.643Z,81.05
2022-11-04T05:11:15.034Z,79.12
2022-11-04T05:12:15.156Z,80.73
2022-11-04T05:13:15.283Z,82.34
2022-11-04T05:14:16.139Z,74.77
2022-11-04T05:15:15.649Z,80.57
2022-11-04T05:16:15.771Z,81.37
2022-11-04T05:17:15.995Z,78.96
2022-11-04T05:18:17.130Z,78.63
2022-11-04T05:19:17.498Z,80.08
2022-11-04T05:20:16.723Z,80.73
2022-11-04T05:21:16.855Z,78.96
2022-11-04T05:22:16.957Z,82.98
2022-11-04T05:23:17.651Z,78.47
2022-11-04T05:24:17.257Z,81.05
2022-11-04T05:25:17.653Z,83.63
2022-11-04T05:26:17.657Z,79.12
2022-11-04T05:27:17.781Z,81.69
2022-11-04T05:28:18.643Z,77.50
2022-11-04T05:29:18.117Z,80.57
2022-11-04T05:30:18.232Z,78.79
2022-11-04T05:31:18.379Z,81.53
2022-11-04T05:32:18.486Z,78.31
2022-11-04T05:33:18.620Z,80.89
2022-11-04T05:34:18.781Z,80.24
2022-11-04T05:35:18.922Z,78.96
2022-11-04T05:36:19.072Z,80.89
2022-11-04T05:37:19.661Z,81.21
2022-11-04T05:38:19.422Z,79.44
2022-11-04T05:39:19.577Z,80.73
2022-11-04T05:40:19.741Z,78.63
2022-11-04T05:41:19.880Z,82.50
2022-11-04T05:42:20.037Z,80.24
2022-11-04T05:43:20.172Z,81.37
2022-11-04T05:44:20.323Z,80.57
2022-11-04T05:45:20.469Z,80.41
2022-11-04T05:46:20.609Z,80.24
2022-11-04T05:47:20.750Z,81.37
2022-11-04T05:48:20.905Z,82.50
2022-11-04T05:49:21.159Z,80.89
2022-11-04T05:50:21.663Z,82.66
2022-11-04T05:51:21.404Z,83.47
2022-11-04T05:52:21.551Z,80.57
2022-11-04T05:53:21.745Z,79.60
2022-11-04T05:54:21.932Z,82.82
2022-11-04T05:55:22.165Z,79.12
2022-11-04T05:56:22.197Z,81.21
2022-11-04T05:57:23.175Z,81.69
2022-11-04T05:58:22.651Z,85.40
2022-11-04T05:59:22.798Z,81.37
2022-11-04T06:00:22.964Z,80.24
2022-11-04T06:01:23.721Z,82.82
2022-11-04T06:02:23.535Z,89.27
2022-11-04T06:03:24.150Z,81.37
2022-11-04T06:04:23.632Z,82.50
2022-11-04T06:05:23.777Z,80.08
2022-11-04T06:06:23.882Z,78.96
2022-11-04T06:07:24.649Z,78.79
2022-11-04T06:08:25.145Z,84.27
2022-11-04T06:09:24.371Z,79.60
2022-11-04T06:10:24.523Z,80.08
2022-11-04T06:11:24.668Z,81.21
2022-11-04T06:12:24.786Z,82.18
2022-11-04T06:13:24.934Z,82.18
2022-11-04T06:14:25.095Z,81.05
2022-11-04T06:15:25.249Z,82.98
2022-11-04T06:16:25.410Z,80.89
2022-11-04T06:17:25.536Z,79.76
2022-11-04T06:18:25.682Z,77.50
2022-11-04T06:19:25.820Z,80.41
2022-11-04T06:20:25.951Z,78.96
2022-11-04T06:21:26.134Z,77.67
2022-11-04T06:22:26.275Z,79.60
2022-11-04T06:23:26.416Z,79.60
2022-11-04T06:24:27.162Z,79.92
2022-11-04T06:25:26.802Z,78.63
2022-11-04T06:26:28.272Z,80.08
2022-11-04T06:27:28.194Z,85.56
2022-11-04T06:28:28.179Z,79.76
2022-11-04T06:29:27.437Z,78.96
2022-11-04T06:30:27.598Z,77.50
2022-11-04T06:31:27.783Z,80.89
2022-11-04T06:32:27.940Z,80.73
2022-11-04T06:33:31.402Z,81.21
2022-11-04T06:34:29.309Z,77.18
2022-11-04T06:35:28.464Z,82.98
2022-11-04T06:36:28.645Z,81.05
2022-11-04T06:37:28.799Z,78.31
2022-11-04T06:38:28.959Z,79.44
2022-11-04T06:39:29.112Z,84.11
2022-11-04T06:40:29.285Z,81.53
2022-11-04T06:41:29.684Z,79.76
2022-11-04T06:42:29.590Z,81.37
2022-11-04T06:43:29.766Z,80.73
2022-11-04T06:44:29.919Z,83.14
2022-11-04T06:45:30.081Z,79.92
2022-11-04T06:46:30.248Z,82.98
2022-11-04T06:47:30.411Z,80.73
2022-11-04T06:48:30.616Z,81.05
2022-11-04T06:49:30.807Z,84.11
2022-11-04T06:50:30.969Z,82.18
2022-11-04T06:51:31.131Z,78.96
2022-11-04T06:52:31.317Z,79.44
2022-11-04T06:53:31.470Z,78.47
2022-11-04T06:54:31.622Z,80.73
2022-11-04T06:55:31.788Z,80.73
2022-11-04T06:56:31.944Z,79.92
2022-11-04T06:57:32.083Z,82.34
2022-11-04T06:58:32.227Z,80.89
2022-11-04T06:59:32.366Z,80.73
2022-11-04T07:00:32.521Z,83.79
2022-11-04T07:01:32.747Z,81.69
2022-11-04T07:02:32.914Z,77.02
2022-11-04T07:03:33.667Z,80.08
2022-11-04T07:04:33.676Z,80.08
2022-11-04T07:05:33.364Z,79.28
2022-11-04T07:06:33.543Z,76.86
2022-11-04T07:07:34.668Z,81.37
2022-11-04T07:08:34.670Z,79.92
2022-11-04T07:09:34.132Z,77.18
2022-11-04T07:10:34.290Z,81.21
2022-11-04T07:11:34.447Z,80.08
2022-11-04T07:12:34.569Z,81.86
2022-11-04T07:13:34.704Z,80.24
2022-11-04T07:14:34.831Z,81.21
2022-11-04T07:15:34.973Z,82.18
2022-11-04T07:16:35.665Z,82.02
2022-11-04T07:17:35.313Z,81.37
2022-11-04T07:18:36.195Z,79.92
2022-11-04T07:19:36.173Z,81.53
2022-11-04T07:20:36.672Z,79.44
2022-11-04T07:21:36.017Z,80.73
2022-11-04T07:22:36.684Z,79.12
2022-11-04T07:23:36.414Z,80.24
2022-11-04T07:24:36.531Z,80.41
2022-11-04T07:25:36.791Z,78.96
2022-11-04T07:26:37.673Z,76.70
2022-11-04T07:27:37.122Z,83.31
2022-11-04T07:28:38.176Z,80.24
2022-11-04T07:29:37.498Z,80.57
2022-11-04T07:30:37.665Z,81.05
2022-11-04T07:31:37.867Z,78.63
2022-11-04T07:32:38.116Z,79.28
2022-11-04T07:33:38.215Z,86.04
2022-11-04T07:34:38.344Z,78.79
2022-11-04T07:35:38.573Z,79.92
2022-11-04T07:36:38.690Z,79.60
2022-11-04T07:37:38.935Z,84.59
2022-11-04T07:38:39.677Z,76.86
2022-11-04T07:39:40.323Z,79.76
2022-11-04T07:40:39.438Z,87.01
2022-11-04T07:41:39.546Z,80.08
2022-11-04T07:42:39.785Z,78.79
2022-11-04T07:43:40.011Z,82.18
2022-11-04T07:44:40.247Z,80.24
2022-11-04T07:45:40.386Z,81.53
2022-11-04T07:46:40.486Z,78.96
2022-11-04T07:47:40.721Z,79.28
2022-11-04T07:48:41.689Z,79.92
2022-11-04T07:49:41.116Z,82.02
2022-11-04T07:50:41.290Z,79.12
2022-11-04T07:51:41.447Z,91.04
2022-11-04T07:52:42.194Z,78.63
2022-11-04T07:53:41.678Z,82.18
2022-11-04T07:54:41.813Z,82.02
2022-11-04T07:55:43.557Z,80.73
2022-11-04T07:56:43.214Z,80.24
2022-11-04T07:57:42.419Z,79.76
2022-11-04T07:58:42.553Z,79.76
2022-11-04T07:59:42.685Z,79.60
2022-11-04T08:00:42.862Z,79.12
2022-11-04T08:01:43.272Z,78.96
2022-11-04T08:02:43.354Z,81.05
2022-11-04T08:03:44.182Z,80.08
2022-11-04T08:04:44.181Z,78.79
2022-11-04T08:05:43.807Z,84.92
2022-11-04T08:06:43.943Z,80.24
2022-11-04T08:07:44.083Z,79.76
2022-11-04T08:08:45.282Z,77.34
2022-11-04T08:09:44.411Z,77.83
2022-11-04T08:10:45.184Z,81.69
2022-11-04T08:11:45.194Z,76.05
2022-11-04T08:12:44.808Z,79.44
2022-11-04T08:13:45.722Z,81.05
2022-11-04T08:14:45.103Z,79.92
2022-11-04T08:15:45.231Z,78.15
2022-11-04T08:16:45.377Z,80.89
2022-11-04T08:17:45.549Z,81.86
2022-11-04T08:18:45.677Z,82.18
2022-11-04T08:19:45.821Z,79.76
2022-11-04T08:20:46.066Z,79.28
2022-11-04T08:21:46.217Z,82.02
2022-11-04T08:22:46.380Z,78.31
2022-11-04T08:23:46.481Z,80.73
2022-11-04T08:24:46.665Z,79.12
2022-11-04T08:25:46.807Z,84.11
2022-11-04T08:26:47.685Z,78.79
2022-11-04T08:27:47.689Z,76.70
2022-11-04T08:28:47.341Z,80.41
2022-11-04T08:29:47.470Z,81.37
2022-11-04T08:30:48.224Z,81.37
2022-11-04T08:31:47.721Z,79.60
2022-11-04T08:32:48.703Z,81.05
2022-11-04T08:33:48.186Z,81.53
2022-11-04T08:34:48.290Z,82.02
2022-11-04T08:35:48.415Z,81.53
2022-11-04T08:36:49.196Z,82.18
2022-11-04T08:37:48.782Z,79.44
2022-11-04T08:38:48.920Z,82.98
2022-11-04T08:39:49.717Z,80.08
2022-11-04T08:40:49.218Z,80.57
2022-11-04T08:41:49.716Z,81.37
2022-11-04T08:42:49.536Z,78.79
2022-11-04T08:43:49.706Z,80.24
2022-11-04T08:44:50.695Z,75.89
2022-11-04T08:45:50.089Z,81.21
2022-11-04T08:46:50.246Z,78.79
2022-11-04T08:47:51.228Z,78.79
2022-11-04T08:48:51.196Z,78.31
2022-11-04T08:49:50.799Z,78.96
2022-11-04T08:50:51.201Z,79.76
2022-11-04T08:51:51.082Z,77.99
2022-11-04T08:52:51.241Z,79.76
2022-11-04T08:53:51.403Z,79.92
2022-11-04T08:54:57.045Z,79.28
2022-11-04T08:55:53.656Z,77.50
2022-11-04T08:56:51.872Z,78.79
2022-11-04T08:57:51.989Z,79.28
2022-11-04T08:58:52.697Z,79.60
2022-11-04T08:59:52.315Z,77.67
2022-11-04T09:00:52.449Z,78.15
2022-11-04T09:01:52.706Z,80.41
2022-11-04T09:02:53.703Z,77.34
2022-11-04T09:03:53.014Z,79.28
2022-11-04T09:04:53.095Z,79.12
2022-11-04T09:05:53.255Z,79.12
2022-11-04T09:06:53.714Z,77.02
2022-11-04T09:07:54.199Z,77.83
2022-11-04T09:08:54.263Z,77.50
2022-11-04T09:09:53.863Z,77.34
2022-11-04T09:10:53.985Z,76.54
2022-11-04T09:11:54.122Z,78.79
2022-11-04T09:12:55.202Z,79.44
2022-11-04T09:13:54.435Z,75.09
2022-11-04T09:14:54.591Z,77.99
2022-11-04T09:15:55.784Z,79.92
2022-11-04T09:16:55.713Z,76.54
2022-11-04T09:17:55.082Z,77.99
2022-11-04T09:18:55.245Z,81.37
2022-11-04T09:19:55.722Z,82.34
2022-11-04T09:20:56.209Z,80.73
2022-11-04T09:21:55.860Z,77.34
2022-11-04T09:22:56.712Z,76.05
2022-11-04T09:23:56.192Z,79.44
2022-11-04T09:24:56.343Z,78.15
2022-11-04T09:25:56.504Z,80.73
2022-11-04T09:26:56.690Z,78.96
2022-11-04T09:27:57.729Z,80.41
2022-11-04T09:28:57.717Z,81.37
2022-11-04T09:29:57.169Z,85.88
2022-11-04T09:30:57.317Z,78.31
2022-11-04T09:31:57.735Z,76.86
2022-11-04T09:32:57.736Z,82.66
2022-11-04T09:33:57.867Z,80.41
2022-11-04T09:34:58.008Z,82.02
2022-11-04T09:35:58.212Z,80.41
2022-11-04T09:36:59.343Z,74.93
2022-11-04T09:37:58.567Z,76.86
2022-11-04T09:38:58.810Z,75.73
2022-11-04T09:39:59.712Z,81.21
2022-11-04T09:40:59.234Z,77.18
2022-11-04T09:41:59.379Z,105.54
2022-11-04T09:42:59.541Z,75.73
2022-11-04T09:43:59.702Z,75.41
2022-11-04T09:45:20.808Z,77.18
2022-11-04T09:46:02.227Z,77.34
2022-11-04T09:47:00.902Z,77.50
2022-11-04T09:48:00.527Z,78.47
2022-11-04T09:49:00.653Z,75.89
2022-11-04T09:50:01.717Z,80.08
2022-11-04T09:51:01.727Z,79.12
2022-11-04T09:52:01.729Z,78.63
2022-11-04T09:53:02.215Z,79.76
2022-11-04T09:54:01.729Z,80.57
2022-11-04T09:55:01.732Z,79.92
2022-11-04T09:56:01.871Z,80.24
2022-11-04T09:57:02.025Z,77.83
2022-11-04T09:58:02.764Z,103.93
2022-11-04T09:59:02.316Z,78.31
2022-11-04T10:00:03.229Z,78.47
2022-11-04T10:01:02.674Z,76.86
2022-11-04T10:02:02.878Z,78.63
2022-11-04T10:03:03.039Z,78.15
2022-11-04T10:04:03.237Z,77.67
2022-11-04T10:05:04.219Z,76.22
2022-11-04T10:06:03.606Z,77.50
2022-11-04T10:07:04.735Z,102.32
2022-11-04T10:08:03.986Z,74.28
2022-11-04T10:09:04.242Z,76.22
2022-11-04T10:10:04.743Z,77.99
2022-11-04T10:11:04.494Z,78.31
2022-11-04T10:12:05.252Z,76.86
2022-11-04T10:13:05.947Z,75.41
2022-11-04T10:14:04.995Z,75.89
2022-11-04T10:15:05.242Z,80.41
2022-11-04T10:16:05.272Z,79.60
2022-11-04T10:17:05.425Z,82.66
2022-11-04T10:18:05.571Z,76.86
2022-11-04T10:19:05.792Z,77.67
2022-11-04T10:20:06.958Z,76.70
2022-11-04T10:21:06.729Z,80.73
2022-11-04T10:22:07.230Z,78.15
2022-11-04T10:23:07.574Z,77.67
2022-11-04T10:24:06.630Z,76.70
2022-11-04T10:25:06.828Z,76.38
2022-11-04T10:26:07.741Z,78.96
2022-11-04T10:27:07.132Z,77.83
2022-11-04T10:28:08.302Z,84.92
2022-11-04T10:29:08.235Z,78.47
2022-11-04T10:30:07.643Z,79.28
2022-11-04T10:31:07.803Z,99.10
2022-11-04T10:32:08.753Z,78.15
2022-11-04T10:33:09.085Z,78.79
2022-11-04T10:34:08.476Z,77.50
2022-11-04T10:35:09.285Z,75.89
2022-11-04T10:36:08.809Z,77.99
2022-11-04T10:37:08.980Z,74.44
2022-11-04T10:38:09.167Z,78.79
2022-11-04T10:39:09.375Z,84.27
2022-11-04T10:40:09.512Z,86.21
2022-11-04T10:41:09.686Z,79.76
2022-11-04T10:42:09.845Z,77.34
2022-11-04T10:43:10.218Z,79.44
2022-11-04T10:44:10.187Z,82.02
2022-11-04T10:45:10.315Z,78.96
2022-11-04T10:46:10.747Z,79.76
2022-11-04T10:47:11.236Z,79.12
2022-11-04T10:48:10.860Z,77.67
2022-11-04T10:49:11.941Z,77.99
2022-11-04T10:51:13.337Z,77.83
2022-11-04T10:52:11.482Z,77.50
2022-11-04T10:53:11.866Z,79.76
2022-11-04T10:54:11.815Z,78.47
2022-11-04T10:55:11.995Z,77.18
2022-11-04T10:56:12.197Z,77.83
2022-11-04T10:57:12.749Z,78.47
2022-11-04T10:58:12.552Z,77.34
2022-11-04T10:59:17.649Z,75.89
2022-11-04T11:00:14.869Z,81.21
2022-11-04T11:01:15.159Z,79.28
2022-11-04T11:02:14.886Z,77.50
2022-11-04T11:03:13.452Z,77.50
2022-11-04T11:04:13.619Z,79.60
2022-11-04T11:05:13.798Z,79.28
2022-11-04T11:06:13.970Z,78.15
2022-11-04T11:07:14.148Z,78.79
2022-11-04T11:08:14.315Z,78.47
2022-11-04T11:09:14.752Z,78.63
2022-11-04T11:10:14.711Z,88.30
2022-11-04T11:11:15.745Z,78.15
2022-11-04T11:12:44.683Z,81.69
2022-11-04T11:13:17.162Z,76.22
2022-11-04T11:14:15.768Z,79.76
2022-11-04T11:15:16.248Z,77.18
2022-11-04T11:16:16.247Z,79.76
2022-11-04T11:17:15.771Z,78.31
2022-11-04T11:18:15.965Z,78.47
2022-11-04T11:19:17.151Z,80.08
2022-11-04T11:20:16.279Z,77.50
2022-11-04T11:21:17.245Z,81.21
2022-11-04T11:22:17.252Z,77.83
2022-11-04T11:23:17.750Z,78.63
2022-11-04T11:24:17.767Z,77.67
2022-11-04T11:25:17.065Z,81.53
2022-11-04T11:26:17.273Z,77.50
2022-11-04T11:27:17.483Z,79.60
2022-11-04T11:28:17.648Z,78.31
2022-11-04T11:29:17.818Z,77.67
2022-11-04T11:30:17.995Z,85.08
2022-11-04T11:31:18.213Z,79.60
2022-11-04T11:32:18.356Z,78.79
2022-11-04T11:33:19.313Z,77.67
2022-11-04T11:34:19.250Z,77.67
2022-11-04T11:35:18.905Z,76.54
2022-11-04T11:36:19.100Z,81.21
2022-11-04T11:37:19.279Z,78.47
2022-11-04T11:38:19.448Z,77.18
2022-11-04T11:39:19.591Z,84.27
2022-11-04T11:40:19.750Z,79.28
2022-11-04T11:41:27.166Z,76.70
2022-11-04T11:42:22.030Z,83.31
2022-11-04T11:43:20.752Z,80.41
2022-11-04T11:44:21.277Z,78.79
2022-11-04T11:45:20.517Z,88.78
2022-11-04T11:46:21.306Z,78.15
2022-11-04T11:47:20.837Z,78.63
2022-11-04T11:48:20.992Z,79.28
2022-11-04T11:49:21.162Z,77.18
2022-11-04T11:50:21.318Z,79.12
2022-11-04T11:51:22.091Z,87.98
2022-11-04T11:52:22.645Z,77.18
2022-11-04T11:53:21.778Z,79.44
2022-11-04T11:54:22.861Z,78.63
2022-11-04T11:55:22.077Z,77.18
2022-11-04T11:56:22.199Z,79.60
2022-11-04T11:57:25.376Z,78.63
2022-11-04T12:00:41.973Z,79.76
2022-11-04T12:01:25.918Z,78.15
2022-11-04T12:02:24.317Z,78.63
2022-11-04T12:03:24.189Z,79.44
2022-11-04T12:06:26.081Z,77.67
2022-11-04T12:09:30.036Z,77.18
2022-11-04T12:10:49.051Z,78.63
2022-11-04T12:11:26.890Z,80.73
2022-11-04T12:12:25.132Z,77.18
2022-11-04T12:13:27.946Z,77.99
2022-11-04T12:14:25.443Z,75.57
2022-11-04T12:15:25.603Z,78.47
2022-11-04T12:16:25.779Z,76.70
2022-11-04T12:17:25.970Z,77.18
2022-11-04T12:18:26.128Z,79.76
2022-11-04T12:19:26.294Z,81.53
2022-11-04T12:20:27.262Z,79.28
2022-11-04T12:21:26.609Z,77.34
2022-11-04T12:22:26.778Z,78.96
2022-11-04T12:23:26.916Z,77.99
2022-11-04T12:24:27.033Z,77.99
2022-11-04T12:25:27.193Z,79.12
2022-11-04T12:26:28.270Z,77.83
2022-11-04T12:27:27.527Z,77.02
2022-11-04T12:28:27.687Z,78.47
2022-11-04T12:29:28.776Z,78.63
2022-11-04T12:30:33.984Z,79.76
2022-11-04T12:31:30.276Z,77.50
2022-11-04T12:32:28.510Z,78.47
2022-11-04T12:33:29.282Z,78.79
2022-11-04T12:34:29.284Z,80.57
2022-11-04T12:35:29.024Z,78.63
2022-11-04T12:36:29.773Z,78.63
2022-11-04T12:37:30.280Z,76.22
2022-11-04T12:38:29.569Z,81.69
2022-11-04T12:39:30.276Z,80.08
2022-11-04T12:40:29.893Z,80.41
2022-11-04T12:41:47.110Z,77.50
2022-11-04T12:42:33.412Z,76.38
2022-11-04T12:43:31.459Z,77.18
2022-11-04T12:44:30.592Z,82.02
2022-11-04T12:45:31.271Z,78.31
2022-11-04T12:46:30.895Z,76.22
2022-11-04T12:47:31.281Z,77.02
2022-11-04T12:48:31.772Z,78.47
2022-11-04T12:49:32.272Z,77.99
2022-11-04T12:50:31.654Z,76.54
2022-11-04T12:51:32.791Z,77.02
2022-11-04T12:52:31.937Z,79.28
2022-11-04T12:53:32.774Z,79.76
2022-11-04T12:54:32.344Z,78.79
2022-11-04T12:55:33.277Z,79.44
2022-11-04T12:56:32.655Z,80.08
2022-11-04T12:57:33.777Z,80.08
2022-11-04T12:58:33.285Z,77.50
2022-11-04T12:59:33.188Z,79.44
2022-11-04T13:00:35.340Z,75.73
2022-11-04T13:01:33.752Z,82.18
2022-11-04T13:02:33.892Z,78.15